createdAt,value
2018-12-11T00:02:01.489Z,3.77
2018-12-11T00:04:27.981Z,4.03
2018-12-11T00:06:54.531Z,4.77
2018-12-11T00:09:21.425Z,5.10
2018-12-11T00:11:47.887Z,4.90
2018-12-11T00:14:14.391Z,6.43
2018-12-11T00:16:40.965Z,5.47
2018-12-11T00:19:07.495Z,6.80
2018-12-11T00:21:33.855Z,10.73
2018-12-11T00:24:00.622Z,5.83
2018-12-11T00:26:27.053Z,15.80
2018-12-11T00:28:53.478Z,9.43
2018-12-11T00:31:20.295Z,6.63
2018-12-11T00:33:46.731Z,7.50
2018-12-11T00:36:13.274Z,8.43
2018-12-11T00:38:40.123Z,7.67
2018-12-11T00:41:06.644Z,10.73
2018-12-11T00:43:33.107Z,7.70
2018-12-11T00:45:59.821Z,7.97
2018-12-11T00:48:26.276Z,6.70
2018-12-11T00:50:52.877Z,6.03
2018-12-11T00:53:19.667Z,8.70
2018-12-11T00:55:46.158Z,6.10
2018-12-11T00:58:12.620Z,5.90
2018-12-11T01:00:39.135Z,12.43
2018-12-11T01:03:05.578Z,8.50
2018-12-11T01:05:32.017Z,6.80
2018-12-11T01:07:58.528Z,5.23
2018-12-11T01:10:24.978Z,8.47
2018-12-11T01:12:51.510Z,6.57
2018-12-11T01:15:18.242Z,5.13
2018-12-11T01:17:44.814Z,4.63
2018-12-11T01:20:11.290Z,5.57
2018-12-11T01:22:37.999Z,5.93
2018-12-11T01:25:04.626Z,8.70
2018-12-11T01:27:31.131Z,9.50
2018-12-11T01:29:57.607Z,7.07
2018-12-11T01:32:24.192Z,6.13
2018-12-11T01:34:50.618Z,7.73
2018-12-11T01:37:17.283Z,7.23
2018-12-11T01:39:43.747Z,3.80
2018-12-11T01:42:10.396Z,6.67
2018-12-11T01:44:36.912Z,5.97
2018-12-11T01:47:03.440Z,5.67
2018-12-11T01:49:29.922Z,6.80
2018-12-11T01:51:56.705Z,3.90
2018-12-11T01:54:23.156Z,5.90
2018-12-11T01:56:49.578Z,5.40
2018-12-11T01:59:16.083Z,4.13
2018-12-11T02:01:42.684Z,4.43
2018-12-11T02:04:09.274Z,7.37
2018-12-11T02:06:42.895Z,3.67
2018-12-11T02:09:09.397Z,4.17
2018-12-11T02:11:36.967Z,3.90
2018-12-11T02:14:03.837Z,3.87
2018-12-11T02:16:30.461Z,3.97
2018-12-11T02:18:56.889Z,3.77
2018-12-11T02:21:23.595Z,4.60
2018-12-11T02:23:50.207Z,3.77
2018-12-11T02:26:16.694Z,4.43
2018-12-11T02:28:43.295Z,4.40
2018-12-11T02:31:09.775Z,3.80
2018-12-11T02:33:36.252Z,3.53
2018-12-11T02:36:03.090Z,3.40
2018-12-11T02:38:29.576Z,3.93
2018-12-11T02:41:03.387Z,3.70
2018-12-11T02:43:29.852Z,3.33
2018-12-11T02:45:56.283Z,4.47
2018-12-11T02:48:22.769Z,3.40
2018-12-11T02:50:49.202Z,3.77
2018-12-11T02:53:15.578Z,4.53
2018-12-11T02:55:42.303Z,3.20
2018-12-11T02:58:08.745Z,3.80
2018-12-11T03:00:35.200Z,3.67
2018-12-11T03:03:02.110Z,4.10
2018-12-11T03:05:28.577Z,3.67
2018-12-11T03:07:55.042Z,3.87
2018-12-11T03:10:21.726Z,3.07
2018-12-11T03:12:48.224Z,4.03
2018-12-11T03:15:14.788Z,4.00
2018-12-11T03:17:41.308Z,3.77
2018-12-11T03:20:07.783Z,3.33
2018-12-11T03:22:34.316Z,3.97
2018-12-11T03:25:01.037Z,3.80
2018-12-11T03:27:27.512Z,2.57
2018-12-11T03:29:54.071Z,3.80
2018-12-11T03:32:20.543Z,3.17
2018-12-11T03:34:46.996Z,3.90
2018-12-11T03:37:13.415Z,2.73
2018-12-11T03:39:40.146Z,3.93
2018-12-11T03:42:06.604Z,3.20
2018-12-11T03:44:33.035Z,3.03
2018-12-11T03:46:59.511Z,3.77
2018-12-11T03:49:25.940Z,3.03
2018-12-11T03:51:52.409Z,3.23
2018-12-11T03:54:19.063Z,3.23
2018-12-11T03:56:45.513Z,3.80
2018-12-11T03:59:11.974Z,2.40
2018-12-11T04:01:38.692Z,2.80
2018-12-11T04:04:05.264Z,3.77
2018-12-11T04:06:31.770Z,2.67
2018-12-11T04:08:58.305Z,2.87
2018-12-11T04:11:24.775Z,3.47
2018-12-11T04:13:51.316Z,2.87
2018-12-11T04:16:18.110Z,2.80
2018-12-11T04:18:44.607Z,2.50
2018-12-11T04:21:11.063Z,3.03
2018-12-11T04:23:37.590Z,3.57
2018-12-11T04:26:04.147Z,3.63
2018-12-11T04:28:30.653Z,2.43
2018-12-11T04:30:57.426Z,3.00
2018-12-11T04:33:23.893Z,2.37
2018-12-11T04:35:50.369Z,2.60
2018-12-11T04:38:16.826Z,3.33
2018-12-11T04:40:43.251Z,3.97
2018-12-11T04:43:09.717Z,2.93
2018-12-11T04:45:36.175Z,3.40
2018-12-11T04:48:02.762Z,3.70
2018-12-11T04:50:29.219Z,3.10
2018-12-11T04:52:55.942Z,4.40
2018-12-11T04:55:22.403Z,2.83
2018-12-11T04:57:48.859Z,3.00
2018-12-11T05:00:15.586Z,2.80
2018-12-11T05:02:42.020Z,2.90
2018-12-11T05:05:08.588Z,3.03
2018-12-11T05:07:35.149Z,2.47
2018-12-11T05:10:01.916Z,3.10
2018-12-11T05:12:28.387Z,3.03
2018-12-11T05:14:54.887Z,2.53
2018-12-11T05:17:21.347Z,2.40
2018-12-11T05:19:47.778Z,2.37
2018-12-11T05:22:14.448Z,2.47
2018-12-11T05:24:40.906Z,1.83
2018-12-11T05:27:07.717Z,2.87
2018-12-11T05:29:34.275Z,2.90
2018-12-11T05:32:00.732Z,2.50
2018-12-11T05:34:27.220Z,2.70
2018-12-11T05:36:55.855Z,2.40
2018-12-11T05:39:22.323Z,1.97
2018-12-11T05:41:48.774Z,1.60
2018-12-11T05:44:15.354Z,2.40
2018-12-11T05:46:41.771Z,2.67
2018-12-11T05:49:08.221Z,2.20
2018-12-11T05:51:34.939Z,1.80
2018-12-11T05:54:01.422Z,2.00
2018-12-11T05:56:27.958Z,2.27
2018-12-11T05:58:54.695Z,2.07
2018-12-11T06:01:21.155Z,2.47
2018-12-11T06:03:47.603Z,1.60
2018-12-11T06:06:14.406Z,2.53
2018-12-11T06:08:40.839Z,3.30
2018-12-11T06:11:07.303Z,3.07
2018-12-11T06:13:33.790Z,3.50
2018-12-11T06:16:00.257Z,3.23
2018-12-11T06:18:26.809Z,2.97
2018-12-11T06:20:53.597Z,2.57
2018-12-11T06:23:20.129Z,2.20
2018-12-11T06:25:46.552Z,2.30
2018-12-11T06:28:13.270Z,3.00
2018-12-11T06:30:39.715Z,2.47
2018-12-11T06:33:06.295Z,2.17
2018-12-11T06:35:32.738Z,2.40
2018-12-11T06:37:59.162Z,3.20
2018-12-11T06:40:25.607Z,3.23
2018-12-11T06:42:52.091Z,2.47
2018-12-11T06:45:18.559Z,2.90
2018-12-11T06:47:44.984Z,2.70
2018-12-11T06:50:11.491Z,2.20
2018-12-11T06:52:37.954Z,1.93
2018-12-11T06:55:04.406Z,1.80
2018-12-11T06:57:30.946Z,2.20
2018-12-11T06:59:57.410Z,1.97
2018-12-11T07:02:23.830Z,2.97
2018-12-11T07:04:50.589Z,2.67
2018-12-11T07:07:17.045Z,2.23
2018-12-11T07:09:43.510Z,1.83
2018-12-11T07:12:10.327Z,1.83
2018-12-11T07:14:36.759Z,2.00
2018-12-11T07:17:03.189Z,1.83
2018-12-11T07:19:29.715Z,2.10
2018-12-11T07:21:56.163Z,1.97
2018-12-11T07:24:22.610Z,2.17
2018-12-11T07:26:49.110Z,1.40
2018-12-11T07:29:15.555Z,1.80
2018-12-11T07:31:42.026Z,1.93
2018-12-11T07:34:08.422Z,1.70
2018-12-11T07:36:34.880Z,2.37
2018-12-11T07:39:01.310Z,1.70
2018-12-11T07:41:27.790Z,2.03
2018-12-11T07:43:54.239Z,1.80
2018-12-11T07:46:20.670Z,1.80
2018-12-11T07:48:47.413Z,1.83
2018-12-11T07:51:13.871Z,1.97
2018-12-11T07:53:40.348Z,1.53
2018-12-11T07:56:06.811Z,1.53
2018-12-11T07:58:33.246Z,1.97
2018-12-11T08:00:59.799Z,2.13
2018-12-11T08:03:26.503Z,1.87
2018-12-11T08:05:52.936Z,1.80
2018-12-11T08:08:19.395Z,1.43
2018-12-11T08:10:45.905Z,1.60
2018-12-11T08:13:12.459Z,2.40
2018-12-11T08:15:38.932Z,1.70
2018-12-11T08:18:05.667Z,1.80
2018-12-11T08:20:32.119Z,1.90
2018-12-11T08:22:58.628Z,1.90
2018-12-11T08:25:25.136Z,1.33
2018-12-11T08:27:51.574Z,1.70
2018-12-11T08:30:18.014Z,1.50
2018-12-11T08:32:44.512Z,1.60
2018-12-11T08:35:10.941Z,1.40
2018-12-11T08:37:37.483Z,1.00
2018-12-11T08:40:04.233Z,1.20
2018-12-11T08:42:30.658Z,1.40
2018-12-11T08:44:57.102Z,2.10
2018-12-11T08:47:23.862Z,1.60
2018-12-11T08:49:50.281Z,1.70
2018-12-11T08:52:16.844Z,2.07
2018-12-11T08:54:43.690Z,1.73
2018-12-11T08:57:10.159Z,1.70
2018-12-11T08:59:36.744Z,1.43
2018-12-11T09:02:03.639Z,2.07
2018-12-11T09:04:30.100Z,1.80
2018-12-11T09:06:56.576Z,2.93
2018-12-11T09:09:22.980Z,2.67
2018-12-11T09:11:49.499Z,2.47
2018-12-11T09:14:15.952Z,3.07
2018-12-11T09:16:42.751Z,3.20
2018-12-11T09:19:09.174Z,3.00
2018-12-11T09:21:35.639Z,2.97
2018-12-11T09:24:02.093Z,3.30
2018-12-11T09:26:28.543Z,2.53
2018-12-11T09:28:54.972Z,2.20
2018-12-11T09:31:21.851Z,2.00
2018-12-11T09:33:48.333Z,2.00
2018-12-11T09:36:14.777Z,1.70
2018-12-11T09:38:41.260Z,2.50
2018-12-11T09:41:07.686Z,1.97
2018-12-11T09:43:34.105Z,2.00
2018-12-11T09:46:01.793Z,2.20
2018-12-11T09:48:28.215Z,2.50
2018-12-11T09:50:54.634Z,2.00
2018-12-11T09:53:21.142Z,1.97
2018-12-11T09:55:47.590Z,2.03
2018-12-11T09:58:14.026Z,2.60
2018-12-11T10:00:40.568Z,2.10
2018-12-11T10:03:07.165Z,2.20
2018-12-11T10:05:33.654Z,2.57
2018-12-11T10:08:00.563Z,2.70
2018-12-11T10:10:27.106Z,2.33
2018-12-11T10:12:53.561Z,2.13
2018-12-11T10:15:20.023Z,2.70
2018-12-11T10:17:46.488Z,2.20
2018-12-11T10:20:13.418Z,3.57
2018-12-11T10:22:40.237Z,2.70
2018-12-11T10:25:07.754Z,2.70
2018-12-11T10:27:34.361Z,1.93
2018-12-11T10:30:00.817Z,3.10
2018-12-11T10:32:27.247Z,2.53
2018-12-11T10:34:53.685Z,2.20
2018-12-11T10:37:20.443Z,2.40
2018-12-11T10:39:53.811Z,2.80
2018-12-11T10:42:20.275Z,2.50
2018-12-11T10:44:47.044Z,2.73
2018-12-11T10:47:13.505Z,2.43
2018-12-11T10:49:39.934Z,2.30
2018-12-11T10:52:06.716Z,2.73
2018-12-11T10:54:33.263Z,2.27
2018-12-11T10:56:59.743Z,3.20
2018-12-11T10:59:26.546Z,3.73
2018-12-11T11:01:53.067Z,2.90
2018-12-11T11:04:20.115Z,3.20
2018-12-11T11:06:46.786Z,3.00
2018-12-11T11:09:13.283Z,2.03
2018-12-11T11:11:39.710Z,2.43
2018-12-11T11:14:06.196Z,2.43
2018-12-11T11:16:32.718Z,2.60
2018-12-11T11:18:59.183Z,3.00
2018-12-11T11:21:25.884Z,2.70
2018-12-11T11:23:52.314Z,2.60
2018-12-11T11:26:18.646Z,4.30
2018-12-11T11:28:45.478Z,4.37
2018-12-11T11:31:11.988Z,3.00
2018-12-11T11:33:38.426Z,2.50
2018-12-11T11:36:05.182Z,2.50
2018-12-11T11:38:31.686Z,4.00
2018-12-11T11:40:58.141Z,3.40
2018-12-11T11:43:24.629Z,4.80
2018-12-11T11:45:51.084Z,4.00
2018-12-11T11:48:17.542Z,3.80
2018-12-11T11:50:44.503Z,3.53
2018-12-11T11:53:10.967Z,3.40
2018-12-11T11:55:37.544Z,4.80
2018-12-11T11:58:04.318Z,3.90
2018-12-11T12:00:30.867Z,3.50
2018-12-11T12:02:57.352Z,3.47
2018-12-11T12:05:23.816Z,4.20
2018-12-11T12:07:50.363Z,4.00
2018-12-11T12:10:16.835Z,3.97
2018-12-11T12:12:43.564Z,9.70
2018-12-11T12:15:10.035Z,3.90
2018-12-11T12:17:43.804Z,4.60
2018-12-11T12:20:10.274Z,5.57
2018-12-11T12:22:36.747Z,5.53
2018-12-11T12:25:03.661Z,5.60
2018-12-11T12:27:30.116Z,5.33
2018-12-11T12:29:56.656Z,4.80
2018-12-11T12:32:23.323Z,5.30
2018-12-11T12:34:49.775Z,8.60
2018-12-11T12:37:16.200Z,5.70
2018-12-11T12:39:42.687Z,7.20
2018-12-11T12:42:09.105Z,9.70
2018-12-11T12:44:35.522Z,6.07
2018-12-11T12:47:02.202Z,5.00
2018-12-11T12:49:28.624Z,4.67
2018-12-11T12:51:55.193Z,4.47
2018-12-11T12:54:21.690Z,5.43
2018-12-11T12:56:48.153Z,5.70
2018-12-11T12:59:14.635Z,4.27
2018-12-11T13:01:41.098Z,7.57
2018-12-11T13:04:07.640Z,10.57
2018-12-11T13:06:34.323Z,8.50
2018-12-11T13:09:01.163Z,5.53
2018-12-11T13:11:28.097Z,6.50
2018-12-11T13:13:55.008Z,7.57
2018-12-11T13:16:21.619Z,8.27
2018-12-11T13:18:48.070Z,7.67
2018-12-11T13:21:14.636Z,4.80
2018-12-11T13:23:41.170Z,5.20
2018-12-11T13:26:07.674Z,7.23
2018-12-11T13:28:34.172Z,7.40
2018-12-11T13:31:00.773Z,7.20
2018-12-11T13:33:27.211Z,8.37
2018-12-11T13:35:53.650Z,7.43
2018-12-11T13:38:20.187Z,8.23
2018-12-11T13:40:46.949Z,9.70
2018-12-11T13:43:13.440Z,8.80
2018-12-11T13:45:39.918Z,7.63
2018-12-11T13:48:06.466Z,7.07
2018-12-11T13:50:33.034Z,5.87
2018-12-11T13:52:59.701Z,7.10
2018-12-11T13:55:26.284Z,7.00
2018-12-11T13:57:52.764Z,6.13
2018-12-11T14:00:19.610Z,5.30
2018-12-11T14:02:46.147Z,5.20
2018-12-11T14:05:12.692Z,10.27
2018-12-11T14:07:39.133Z,5.90
2018-12-11T14:10:05.595Z,6.87
2018-12-11T14:12:32.174Z,5.60
2018-12-11T14:14:58.838Z,5.87
2018-12-11T14:17:25.268Z,7.97
2018-12-11T14:19:51.695Z,8.23
2018-12-11T14:22:18.161Z,5.80
2018-12-11T14:24:44.595Z,7.73
2018-12-11T14:27:11.174Z,7.93
2018-12-11T14:29:37.973Z,6.33
2018-12-11T14:32:04.681Z,6.03
2018-12-11T14:34:31.186Z,6.57
2018-12-11T14:36:58.000Z,9.40
2018-12-11T14:39:24.511Z,5.47
2018-12-11T14:41:51.136Z,6.40
2018-12-11T14:44:17.834Z,6.13
2018-12-11T14:46:44.305Z,5.77
2018-12-11T14:49:10.763Z,5.33
2018-12-11T14:51:37.238Z,7.33
2018-12-11T14:54:03.803Z,4.33
2018-12-11T14:56:30.425Z,4.30
2018-12-11T14:58:57.305Z,4.93
2018-12-11T15:01:23.812Z,5.30
2018-12-11T15:03:50.413Z,5.53
2018-12-11T15:06:17.106Z,5.17
2018-12-11T15:08:43.582Z,5.20
2018-12-11T15:11:10.039Z,5.50
2018-12-11T15:13:36.520Z,5.53
2018-12-11T15:16:03.143Z,5.63
2018-12-11T15:18:29.575Z,4.90
2018-12-11T15:20:56.324Z,4.70
2018-12-11T15:23:22.754Z,5.47
2018-12-11T15:25:49.275Z,5.10
2018-12-11T15:28:17.930Z,5.57
2018-12-11T15:30:44.552Z,4.50
2018-12-11T15:33:11.017Z,4.30
2018-12-11T15:35:37.787Z,4.53
2018-12-11T15:38:04.301Z,4.20
2018-12-11T15:40:30.748Z,4.83
2018-12-11T15:42:57.305Z,4.70
2018-12-11T15:45:23.927Z,4.77
2018-12-11T15:47:50.433Z,3.17
2018-12-11T15:50:17.127Z,4.03
2018-12-11T15:52:43.648Z,3.87
2018-12-11T15:55:10.185Z,3.40
2018-12-11T15:57:36.730Z,3.90
2018-12-11T16:00:04.868Z,6.00
2018-12-11T16:02:31.379Z,4.37
2018-12-11T16:04:57.855Z,3.67
2018-12-11T16:07:24.277Z,3.07
2018-12-11T16:09:50.697Z,3.57
2018-12-11T16:12:17.163Z,3.73
2018-12-11T16:14:43.660Z,3.60
2018-12-11T16:17:10.123Z,3.10
2018-12-11T16:19:36.562Z,3.90
2018-12-11T16:22:03.066Z,4.03
2018-12-11T16:24:29.507Z,5.17
2018-12-11T16:26:56.174Z,3.53
2018-12-11T16:29:22.696Z,4.97
2018-12-11T16:31:49.238Z,4.90
2018-12-11T16:34:15.678Z,4.73
2018-12-11T16:36:42.959Z,4.57
2018-12-11T16:39:09.410Z,4.50
2018-12-11T16:41:36.126Z,5.03
2018-12-11T16:44:02.658Z,5.10
2018-12-11T16:46:29.131Z,4.63
2018-12-11T16:48:55.806Z,4.40
2018-12-11T16:51:22.335Z,5.07
2018-12-11T16:53:48.753Z,5.20
2018-12-11T16:56:15.223Z,5.10
2018-12-11T16:58:41.637Z,6.60
2018-12-11T17:01:08.164Z,5.60
2018-12-11T17:03:34.890Z,4.80
2018-12-11T17:06:01.344Z,5.60
2018-12-11T17:08:27.811Z,6.60
2018-12-11T17:10:54.539Z,4.17
2018-12-11T17:13:20.969Z,6.13
2018-12-11T17:15:47.663Z,5.90
2018-12-11T17:18:14.378Z,5.10
2018-12-11T17:20:41.071Z,5.07
2018-12-11T17:23:08.600Z,5.47
2018-12-11T17:25:35.150Z,6.60
2018-12-11T17:28:01.545Z,5.10
2018-12-11T17:30:28.036Z,4.83
2018-12-11T17:32:54.804Z,5.90
2018-12-11T17:35:21.304Z,5.90
2018-12-11T17:37:47.775Z,4.90
2018-12-11T17:40:14.394Z,5.27
2018-12-11T17:42:40.826Z,4.40
2018-12-11T17:45:07.245Z,4.87
2018-12-11T17:47:33.787Z,4.83
2018-12-11T17:50:00.349Z,6.17
2018-12-11T17:52:26.789Z,6.30
2018-12-11T17:54:53.752Z,5.00
2018-12-11T17:57:20.351Z,4.97
2018-12-11T17:59:46.836Z,4.57
2018-12-11T18:02:15.324Z,5.30
2018-12-11T18:04:41.811Z,6.00
2018-12-11T18:07:08.359Z,5.40
2018-12-11T18:09:35.211Z,14.60
2018-12-11T18:12:01.712Z,8.23
2018-12-11T18:14:29.098Z,10.83
2018-12-11T18:16:56.896Z,11.27
2018-12-11T18:19:23.381Z,10.10
2018-12-11T18:21:50.670Z,12.00
2018-12-11T18:24:17.549Z,8.10
2018-12-11T18:26:44.100Z,6.13
2018-12-11T18:29:10.525Z,7.30
2018-12-11T18:31:37.295Z,9.73
2018-12-11T18:34:10.881Z,11.80
2018-12-11T18:36:32.970Z,9.20
2018-12-11T18:38:59.663Z,10.13
2018-12-11T18:41:26.165Z,13.57
2018-12-11T18:43:52.754Z,10.83
2018-12-11T18:46:19.295Z,5.40
2018-12-11T18:48:46.847Z,7.87
2018-12-11T18:51:13.464Z,6.60
2018-12-11T18:53:40.138Z,9.80
2018-12-11T18:56:06.651Z,4.80
2018-12-11T18:58:34.440Z,6.23
2018-12-11T19:01:01.381Z,9.13
2018-12-11T19:03:27.849Z,21.87
2018-12-11T19:05:54.381Z,8.00
2018-12-11T19:08:20.944Z,34.20
2018-12-11T19:10:54.225Z,11.20
2018-12-11T19:13:20.778Z,16.37
2018-12-11T19:15:47.352Z,8.27
2018-12-11T19:18:13.935Z,5.93
2018-12-11T19:20:40.816Z,5.87
2018-12-11T19:23:09.273Z,9.47
2018-12-11T19:25:35.830Z,7.90
2018-12-11T19:28:02.915Z,9.83
2018-12-11T19:30:29.383Z,5.53
2018-12-11T19:32:55.960Z,8.17
2018-12-11T19:35:22.590Z,7.40
2018-12-11T19:37:49.057Z,7.40
2018-12-11T19:40:15.536Z,7.30
2018-12-11T19:42:42.082Z,9.63
2018-12-11T19:45:08.562Z,9.37
2018-12-11T19:47:35.117Z,8.00
2018-12-11T19:50:02.136Z,10.53
2018-12-11T19:52:28.623Z,6.70
2018-12-11T19:54:55.154Z,5.77
2018-12-11T19:57:21.950Z,5.70
2018-12-11T19:59:48.463Z,6.40
2018-12-11T20:02:14.935Z,6.73
2018-12-11T20:04:41.474Z,5.30
2018-12-11T20:07:08.055Z,5.27
2018-12-11T20:09:36.734Z,5.87
2018-12-11T20:12:03.522Z,7.53
2018-12-11T20:14:30.018Z,6.70
2018-12-11T20:16:56.459Z,7.93
2018-12-11T20:19:23.209Z,7.10
2018-12-11T20:21:49.643Z,5.83
2018-12-11T20:24:16.114Z,6.30
2018-12-11T20:26:42.963Z,4.90
2018-12-11T20:29:09.512Z,5.53
2018-12-11T20:31:36.019Z,4.60
2018-12-11T20:34:02.552Z,5.80
2018-12-11T20:36:29.050Z,6.30
2018-12-11T20:38:55.650Z,5.40
2018-12-11T20:41:23.503Z,5.07
2018-12-11T20:43:49.948Z,5.50
2018-12-11T20:46:16.408Z,5.00
2018-12-11T20:48:43.276Z,5.73
2018-12-11T20:51:09.734Z,4.30
2018-12-11T20:53:36.372Z,4.10
2018-12-11T20:56:03.116Z,6.23
2018-12-11T20:58:29.606Z,4.00
2018-12-11T21:00:56.040Z,4.70
2018-12-11T21:03:22.548Z,4.37
2018-12-11T21:05:48.970Z,3.87
2018-12-11T21:08:15.644Z,3.17
2018-12-11T21:10:42.305Z,4.13
2018-12-11T21:13:08.796Z,4.40
2018-12-11T21:15:35.327Z,3.33
2018-12-11T21:18:02.168Z,4.10
2018-12-11T21:20:28.653Z,4.40
2018-12-11T21:22:55.263Z,3.97
2018-12-11T21:25:21.851Z,4.83
2018-12-11T21:27:48.273Z,4.30
2018-12-11T21:30:14.734Z,4.00
2018-12-11T21:32:41.191Z,3.47
2018-12-11T21:35:07.646Z,3.80
2018-12-11T21:37:34.099Z,6.40
2018-12-11T21:40:00.785Z,5.80
2018-12-11T21:42:27.223Z,4.77
2018-12-11T21:44:53.716Z,4.03
2018-12-11T21:47:20.943Z,4.73
2018-12-11T21:49:47.432Z,4.60
2018-12-11T21:52:14.079Z,5.07
2018-12-11T21:54:40.657Z,3.83
2018-12-11T21:57:07.275Z,4.50
2018-12-11T21:59:33.727Z,4.40
2018-12-11T22:02:00.225Z,4.50
2018-12-11T22:04:26.734Z,4.50
2018-12-11T22:06:53.248Z,4.37
2018-12-11T22:09:20.002Z,4.50
2018-12-11T22:11:46.587Z,4.77
2018-12-11T22:14:13.116Z,4.23
2018-12-11T22:16:39.913Z,5.30
2018-12-11T22:19:06.592Z,4.17
2018-12-11T22:21:33.186Z,6.53
2018-12-11T22:23:59.968Z,4.27
2018-12-11T22:26:26.539Z,4.00
2018-12-11T22:28:53.015Z,5.70
2018-12-11T22:31:19.547Z,4.20
2018-12-11T22:33:46.098Z,6.50
2018-12-11T22:36:12.475Z,4.27
2018-12-11T22:38:39.295Z,3.50
2018-12-11T22:41:05.859Z,4.20
2018-12-11T22:43:33.378Z,3.47
2018-12-11T22:46:00.271Z,3.83
2018-12-11T22:48:26.989Z,4.23
2018-12-11T22:50:53.571Z,4.03
2018-12-11T22:53:20.427Z,4.90
2018-12-11T22:55:47.415Z,4.00
2018-12-11T22:58:13.881Z,2.90
2018-12-11T23:00:41.774Z,3.30
2018-12-11T23:03:08.263Z,4.10
2018-12-11T23:05:34.738Z,4.20
2018-12-11T23:08:01.587Z,4.80
2018-12-11T23:10:28.188Z,4.57
2018-12-11T23:12:54.707Z,4.47
2018-12-11T23:15:21.247Z,3.20
2018-12-11T23:17:47.792Z,4.10
2018-12-11T23:20:14.260Z,3.40
2018-12-11T23:22:41.099Z,3.20
2018-12-11T23:25:07.818Z,4.40
2018-12-11T23:27:34.254Z,3.90
2018-12-11T23:30:01.285Z,4.40
2018-12-11T23:32:27.902Z,4.27
2018-12-11T23:34:54.883Z,4.60
2018-12-11T23:37:21.751Z,3.20
2018-12-11T23:39:48.224Z,3.13
2018-12-11T23:42:14.657Z,4.10
2018-12-11T23:44:41.516Z,3.60
2018-12-11T23:47:08.086Z,4.50
2018-12-11T23:49:34.607Z,4.80
2018-12-11T23:52:01.538Z,3.20
2018-12-11T23:54:28.079Z,4.50
2018-12-11T23:56:54.722Z,4.60
2018-12-11T23:59:21.170Z,2.90
